createdAt,value
2023-01-29T00:02:04.549Z,96557.94
2023-01-29T00:07:06.910Z,96549.66
2023-01-29T00:12:09.841Z,96547.09
2023-01-29T00:17:12.310Z,96553.91
2023-01-29T00:22:14.797Z,96564.81
2023-01-29T00:27:17.246Z,96564.47
2023-01-29T00:32:19.866Z,96575.38
2023-01-29T00:37:22.428Z,96577.03
2023-01-29T00:42:42.473Z,96575.03
2023-01-29T00:47:44.921Z,96574.16
2023-01-29T00:52:48.708Z,96569.25
2023-01-29T00:57:51.113Z,96578.47
2023-01-29T01:03:08.872Z,96570.38
2023-01-29T01:08:25.229Z,96561.34
2023-01-29T01:13:27.885Z,96572.97
2023-01-29T01:18:30.220Z,96571.91
2023-01-29T01:23:32.620Z,96581.88
2023-01-29T01:28:35.025Z,96571.53
2023-01-29T01:33:38.444Z,96579.19
2023-01-29T01:38:44.637Z,96583.63
2023-01-29T01:43:48.846Z,96578.38
2023-01-29T01:48:51.237Z,96572.31
2023-01-29T01:53:53.652Z,96576.47
2023-01-29T01:58:56.139Z,96572.44
2023-01-29T02:04:16.339Z,96574.00
2023-01-29T02:09:35.396Z,96569.25
2023-01-29T02:14:38.985Z,96574.94
2023-01-29T02:19:41.394Z,96578.81
2023-01-29T02:24:43.839Z,96580.66
2023-01-29T02:29:46.269Z,96571.53
2023-01-29T02:35:06.283Z,96565.28
2023-01-29T02:40:08.667Z,96561.31
2023-01-29T02:45:11.421Z,96563.22
2023-01-29T02:50:14.480Z,96546.28
2023-01-29T02:55:17.114Z,96544.66
2023-01-29T03:00:19.790Z,96547.94
2023-01-29T03:05:23.029Z,96541.75
2023-01-29T03:10:25.895Z,96545.28
2023-01-29T03:15:28.613Z,96544.72
2023-01-29T03:20:32.548Z,96540.34
2023-01-29T03:25:52.623Z,96554.84
2023-01-29T03:31:12.685Z,96567.53
2023-01-29T03:36:15.055Z,96558.47
2023-01-29T03:41:17.407Z,96557.91
2023-01-29T03:46:20.004Z,96554.16
2023-01-29T03:51:22.331Z,96547.63
2023-01-29T03:56:24.613Z,96535.47
2023-01-29T04:01:26.992Z,96521.34
2023-01-29T04:06:29.422Z,96518.16
2023-01-29T04:11:31.806Z,96522.38
2023-01-29T04:16:34.308Z,96518.44
2023-01-29T04:21:37.589Z,96528.41
2023-01-29T04:26:39.984Z,96527.25
2023-01-29T04:31:42.443Z,96519.72
2023-01-29T04:36:44.815Z,96525.78
2023-01-29T04:41:47.206Z,96536.50
2023-01-29T04:46:49.541Z,96536.97
2023-01-29T04:51:51.869Z,96530.72
2023-01-29T04:56:54.217Z,96524.72
2023-01-29T05:01:56.545Z,96519.06
2023-01-29T05:06:58.892Z,96520.59
2023-01-29T05:12:01.263Z,96536.69
2023-01-29T05:17:03.615Z,96541.25
2023-01-29T05:22:06.065Z,96540.75
2023-01-29T05:27:26.208Z,96553.66
2023-01-29T05:32:28.510Z,96561.59
2023-01-29T05:37:31.071Z,96564.59
2023-01-29T05:42:33.433Z,96570.81
2023-01-29T05:47:35.936Z,96569.34
2023-01-29T05:52:38.309Z,96585.09
2023-01-29T05:57:40.593Z,96564.47
2023-01-29T06:02:42.944Z,96562.84
2023-01-29T06:07:46.911Z,96567.53
2023-01-29T06:12:49.230Z,96556.66
2023-01-29T06:17:51.549Z,96547.00
2023-01-29T06:22:53.837Z,96549.00
2023-01-29T06:27:59.100Z,96551.56
2023-01-29T06:33:02.916Z,96555.75
2023-01-29T06:38:05.451Z,96566.81
2023-01-29T06:43:07.821Z,96566.09
2023-01-29T06:48:10.185Z,96569.38
2023-01-29T06:53:12.503Z,96570.28
2023-01-29T06:58:15.176Z,96571.66
2023-01-29T07:03:17.480Z,96568.13
2023-01-29T07:08:22.575Z,96578.53
2023-01-29T07:13:25.019Z,96556.72
2023-01-29T07:18:27.327Z,96551.28
2023-01-29T07:23:29.738Z,96546.72
2023-01-29T07:28:32.015Z,96550.13
2023-01-29T07:33:34.340Z,96542.38
2023-01-29T07:38:36.670Z,96537.66
2023-01-29T07:43:38.975Z,96528.47
2023-01-29T07:48:41.334Z,96526.44
2023-01-29T07:53:44.346Z,96518.69
2023-01-29T07:58:47.001Z,96526.69
2023-01-29T08:03:51.338Z,96519.84
2023-01-29T08:08:55.688Z,96519.72
2023-01-29T08:13:58.081Z,96529.97
2023-01-29T08:19:01.929Z,96532.75
2023-01-29T08:24:04.308Z,96526.84
2023-01-29T08:29:06.719Z,96537.66
2023-01-29T08:34:09.086Z,96535.75
2023-01-29T08:39:11.532Z,96540.94
2023-01-29T08:44:13.897Z,96547.94
2023-01-29T08:49:16.390Z,96562.47
2023-01-29T08:54:18.720Z,96565.28
2023-01-29T08:59:22.896Z,96570.66
2023-01-29T09:04:25.191Z,96571.50
2023-01-29T09:09:27.522Z,96574.31
2023-01-29T09:14:29.883Z,96579.34
2023-01-29T09:19:32.331Z,96596.56
2023-01-29T09:24:35.074Z,96597.84
2023-01-29T09:29:37.508Z,96594.88
2023-01-29T09:34:40.100Z,96599.31
2023-01-29T09:39:42.376Z,96613.06
2023-01-29T09:44:44.696Z,96617.31
2023-01-29T09:49:47.218Z,96616.16
2023-01-29T09:54:49.930Z,96621.06
2023-01-29T09:59:52.394Z,96614.06
2023-01-29T10:04:55.232Z,96603.78
2023-01-29T10:09:57.705Z,96608.28
2023-01-29T10:15:00.460Z,96604.84
2023-01-29T10:20:02.836Z,96603.47
2023-01-29T10:25:05.149Z,96599.19
2023-01-29T10:30:09.342Z,96595.44
2023-01-29T10:35:11.725Z,96596.31
2023-01-29T10:40:14.089Z,96594.66
2023-01-29T10:45:16.657Z,96593.91
2023-01-29T10:50:19.573Z,96592.16
2023-01-29T10:55:21.899Z,96583.63
2023-01-29T11:00:24.189Z,96593.56
2023-01-29T11:05:26.862Z,96582.97
2023-01-29T11:10:29.472Z,96576.09
2023-01-29T11:15:33.875Z,96575.13
2023-01-29T11:20:36.242Z,96564.19
2023-01-29T11:25:38.568Z,96558.53
2023-01-29T11:30:41.048Z,96550.03
2023-01-29T11:35:43.449Z,96548.41
2023-01-29T11:40:46.130Z,96551.28
2023-01-29T11:45:48.667Z,96547.09
2023-01-29T11:50:51.098Z,96524.06
2023-01-29T11:55:55.914Z,96489.91
2023-01-29T12:00:58.408Z,96460.44
2023-01-29T12:06:00.914Z,96454.09
2023-01-29T12:11:03.348Z,96458.81
2023-01-29T12:16:05.710Z,96451.69
2023-01-29T12:21:08.180Z,96459.19
2023-01-29T12:26:10.825Z,96461.03
2023-01-29T12:31:13.453Z,96482.91
2023-01-29T12:36:15.858Z,96477.88
2023-01-29T12:41:18.246Z,96463.19
2023-01-29T12:46:20.656Z,96462.09
2023-01-29T12:51:23.098Z,96448.41
2023-01-29T12:56:25.415Z,96444.22
2023-01-29T13:01:27.777Z,96433.91
2023-01-29T13:06:30.115Z,96419.41
2023-01-29T13:11:32.488Z,96410.00
2023-01-29T13:16:35.098Z,96397.47
2023-01-29T13:21:38.936Z,96396.28
2023-01-29T13:26:41.308Z,96388.13
2023-01-29T13:31:46.570Z,96388.44
2023-01-29T13:36:49.044Z,96390.19
2023-01-29T13:41:51.459Z,96383.81
2023-01-29T13:46:53.871Z,96367.75
2023-01-29T13:51:56.313Z,96362.44
2023-01-29T13:56:59.361Z,96365.28
2023-01-29T14:02:02.598Z,96363.50
2023-01-29T14:07:06.491Z,96356.59
2023-01-29T14:12:08.833Z,96351.81
2023-01-29T14:17:11.273Z,96351.50
2023-01-29T14:22:14.026Z,96347.47
2023-01-29T14:27:16.435Z,96356.84
2023-01-29T14:32:19.386Z,96361.88
2023-01-29T14:37:21.829Z,96382.97
2023-01-29T14:42:24.200Z,96386.25
2023-01-29T14:47:26.936Z,96393.53
2023-01-29T14:52:29.280Z,96392.84
2023-01-29T14:57:31.565Z,96385.53
2023-01-29T15:02:37.182Z,96371.38
2023-01-29T15:07:39.593Z,96379.28
2023-01-29T15:12:41.983Z,96373.13
2023-01-29T15:17:44.379Z,96364.28
2023-01-29T15:22:46.737Z,96380.13
2023-01-29T15:27:49.010Z,96386.28
2023-01-29T15:32:51.375Z,96380.00
2023-01-29T15:37:53.670Z,96393.97
2023-01-29T15:42:56.022Z,96387.28
2023-01-29T15:47:58.347Z,96386.53
2023-01-29T15:53:00.681Z,96383.94
2023-01-29T15:58:03.003Z,96391.63
2023-01-29T16:03:05.384Z,96389.38
2023-01-29T16:08:08.057Z,96387.03
2023-01-29T16:13:10.786Z,96399.06
2023-01-29T16:18:13.118Z,96402.78
2023-01-29T16:23:15.467Z,96399.63
2023-01-29T16:28:17.793Z,96406.28
2023-01-29T16:33:21.346Z,96410.63
2023-01-29T16:38:23.808Z,96414.59
2023-01-29T16:43:28.350Z,96426.47
2023-01-29T16:48:33.610Z,96423.41
2023-01-29T16:53:35.938Z,96424.91
2023-01-29T16:58:38.296Z,96435.72
2023-01-29T17:03:40.690Z,96445.03
2023-01-29T17:08:43.105Z,96451.13
2023-01-29T17:13:45.529Z,96443.94
2023-01-29T17:18:47.922Z,96450.97
2023-01-29T17:23:50.347Z,96448.97
2023-01-29T17:28:52.682Z,96446.41
2023-01-29T17:33:55.009Z,96448.41
2023-01-29T17:38:57.511Z,96437.66
2023-01-29T17:43:59.919Z,96444.47
2023-01-29T17:49:04.412Z,96444.84
2023-01-29T17:54:06.874Z,96446.84
2023-01-29T17:59:09.419Z,96441.78
2023-01-29T18:04:11.920Z,96442.66
2023-01-29T18:09:14.589Z,96436.84
2023-01-29T18:14:17.420Z,96434.41
2023-01-29T18:19:19.869Z,96424.25
2023-01-29T18:24:22.217Z,96430.88
2023-01-29T18:29:29.423Z,96432.09
2023-01-29T18:34:31.895Z,96417.88
2023-01-29T18:39:34.426Z,96423.38
2023-01-29T18:44:36.800Z,96424.78
2023-01-29T18:49:39.183Z,96425.59
2023-01-29T18:54:41.716Z,96431.56
2023-01-29T18:59:44.529Z,96421.28
2023-01-29T19:04:47.470Z,96417.75
2023-01-29T19:09:50.500Z,96417.59
2023-01-29T19:14:52.808Z,96424.28
2023-01-29T19:19:56.541Z,96421.28
2023-01-29T19:24:58.864Z,96420.97
2023-01-29T19:30:02.095Z,96426.69
2023-01-29T19:35:04.931Z,96422.13
2023-01-29T19:40:08.128Z,96423.38
2023-01-29T19:45:10.491Z,96416.56
2023-01-29T19:50:12.930Z,96407.09
2023-01-29T19:55:15.528Z,96400.53
2023-01-29T20:00:18.481Z,96399.34
2023-01-29T20:05:20.851Z,96397.69
2023-01-29T20:10:23.335Z,96392.16
2023-01-29T20:15:25.770Z,96402.75
2023-01-29T20:20:32.535Z,96403.44
2023-01-29T20:25:35.721Z,96407.09
2023-01-29T20:30:38.245Z,96405.97
2023-01-29T20:35:40.690Z,96401.06
2023-01-29T20:40:43.289Z,96395.03
2023-01-29T20:45:45.780Z,96391.13
2023-01-29T20:50:48.396Z,96381.59
2023-01-29T20:55:50.757Z,96379.50
2023-01-29T21:00:53.148Z,96372.94
2023-01-29T21:05:56.997Z,96376.06
2023-01-29T21:10:59.729Z,96377.09
2023-01-29T21:16:02.164Z,96363.28
2023-01-29T21:21:04.530Z,96374.69
2023-01-29T21:26:06.866Z,96373.19
2023-01-29T21:31:09.989Z,96389.84
2023-01-29T21:36:12.416Z,96390.06
2023-01-29T21:41:15.234Z,96389.13
2023-01-29T21:46:17.710Z,96385.00
2023-01-29T21:51:20.186Z,96383.75
2023-01-29T21:56:22.542Z,96377.28
2023-01-29T22:01:37.272Z,96367.25
2023-01-29T22:06:41.065Z,96373.41
2023-01-29T22:11:43.418Z,96375.53
2023-01-29T22:16:46.220Z,96363.50
2023-01-29T22:21:48.657Z,96368.66
2023-01-29T22:26:51.221Z,96363.44
2023-01-29T22:31:53.599Z,96356.69
2023-01-29T22:36:55.899Z,96345.25
2023-01-29T22:41:58.395Z,96327.53
2023-01-29T22:47:00.835Z,96319.31
2023-01-29T22:52:12.421Z,96314.75
2023-01-29T22:57:14.797Z,96295.06
2023-01-29T23:02:17.171Z,96292.06
2023-01-29T23:07:19.722Z,96285.53
2023-01-29T23:12:22.143Z,96278.66
2023-01-29T23:17:24.611Z,96279.66
2023-01-29T23:22:27.269Z,96276.66
2023-01-29T23:27:29.721Z,96275.84
2023-01-29T23:32:32.149Z,96260.75
2023-01-29T23:37:34.613Z,96261.94
2023-01-29T23:42:37.027Z,96261.47
2023-01-29T23:47:39.481Z,96258.69
2023-01-29T23:52:41.873Z,96250.19
2023-01-29T23:57:44.287Z,96240.63
